sensor_id;sensor_type;location;lat;lon;timestamp;pressure;altitude;pressure_sealevel;temperature;humidity
79362;BME280;68830;47.566;19.012;2023-06-19T00:02:09;99809.91;;;16.13;73.70
79362;BME280;68830;47.566;19.012;2023-06-19T00:05:12;99903.97;;;16.74;74.05
79362;BME280;68830;47.566;19.012;2023-06-19T00:08:15;99905.81;;;16.73;74.16
79362;BME280;68830;47.566;19.012;2023-06-19T00:11:17;99901.94;;;16.76;75.13
79362;BME280;68830;47.566;19.012;2023-06-19T00:14:20;99897.50;;;16.68;75.07
79362;BME280;68830;47.566;19.012;2023-06-19T00:17:23;99899.63;;;16.73;74.74
79362;BME280;68830;47.566;19.012;2023-06-19T00:20:29;99901.69;;;16.71;74.51
79362;BME280;68830;47.566;19.012;2023-06-19T00:23:31;99883.03;;;16.63;74.75
79362;BME280;68830;47.566;19.012;2023-06-19T00:26:33;99895.66;;;16.69;74.47
79362;BME280;68830;47.566;19.012;2023-06-19T00:29:35;99894.00;;;16.68;74.91
79362;BME280;68830;47.566;19.012;2023-06-19T00:32:38;99891.69;;;16.65;75.02
79362;BME280;68830;47.566;19.012;2023-06-19T00:35:50;99867.59;;;16.43;74.47
79362;BME280;68830;47.566;19.012;2023-06-19T00:38:52;99889.69;;;16.52;75.91
79362;BME280;68830;47.566;19.012;2023-06-19T00:41:55;99893.50;;;16.43;75.57
79362;BME280;68830;47.566;19.012;2023-06-19T00:44:58;99879.78;;;16.31;75.34
79362;BME280;68830;47.566;19.012;2023-06-19T00:48:02;99893.22;;;16.38;75.26
79362;BME280;68830;47.566;19.012;2023-06-19T00:51:06;99881.66;;;16.16;75.17
79362;BME280;68830;47.566;19.012;2023-06-19T00:54:08;99903.22;;;16.14;76.11
79362;BME280;68830;47.566;19.012;2023-06-19T00:57:11;99895.97;;;16.08;76.42
79362;BME280;68830;47.566;19.012;2023-06-19T01:00:13;99889.94;;;16.06;76.29
79362;BME280;68830;47.566;19.012;2023-06-19T01:03:17;99877.91;;;15.96;77.30
79362;BME280;68830;47.566;19.012;2023-06-19T01:06:24;99886.19;;;16.01;76.87
79362;BME280;68830;47.566;19.012;2023-06-19T01:09:32;99881.50;;;16.03;77.10
79362;BME280;68830;47.566;19.012;2023-06-19T01:12:37;99882.50;;;16.02;77.53
79362;BME280;68830;47.566;19.012;2023-06-19T01:15:41;99879.84;;;16.02;77.30
79362;BME280;68830;47.566;19.012;2023-06-19T01:18:45;99892.44;;;16.08;77.56
79362;BME280;68830;47.566;19.012;2023-06-19T01:21:48;99868.97;;;16.03;77.35
79362;BME280;68830;47.566;19.012;2023-06-19T01:24:53;99885.09;;;16.10;76.22
79362;BME280;68830;47.566;19.012;2023-06-19T01:27:56;99881.59;;;16.09;77.02
79362;BME280;68830;47.566;19.012;2023-06-19T01:31:00;99876.59;;;16.06;76.51
79362;BME280;68830;47.566;19.012;2023-06-19T01:34:06;99870.16;;;16.01;76.45
79362;BME280;68830;47.566;19.012;2023-06-19T01:37:10;99879.84;;;16.02;77.45
79362;BME280;68830;47.566;19.012;2023-06-19T01:40:17;99845.31;;;15.86;77.02
79362;BME280;68830;47.566;19.012;2023-06-19T01:43:19;99853.78;;;15.89;76.97
79362;BME280;68830;47.566;19.012;2023-06-19T01:46:21;99869.72;;;15.97;77.21
79362;BME280;68830;47.566;19.012;2023-06-19T01:49:23;99852.88;;;15.82;77.12
79362;BME280;68830;47.566;19.012;2023-06-19T01:52:26;99863.63;;;15.89;77.91
79362;BME280;68830;47.566;19.012;2023-06-19T01:55:29;99858.22;;;15.82;77.94
79362;BME280;68830;47.566;19.012;2023-06-19T01:58:32;99868.50;;;15.85;78.18
79362;BME280;68830;47.566;19.012;2023-06-19T02:01:33;99868.69;;;15.83;77.55
79362;BME280;68830;47.566;19.012;2023-06-19T02:04:36;99876.34;;;15.87;77.14
79362;BME280;68830;47.566;19.012;2023-06-19T02:07:37;99877.44;;;15.92;77.11
79362;BME280;68830;47.566;19.012;2023-06-19T02:10:41;99848.81;;;15.71;77.12
79362;BME280;68830;47.566;19.012;2023-06-19T02:13:43;99876.06;;;15.81;77.41
79362;BME280;68830;47.566;19.012;2023-06-19T02:16:46;99874.94;;;15.76;77.95
79362;BME280;68830;47.566;19.012;2023-06-19T02:19:49;99875.31;;;15.73;77.79
79362;BME280;68830;47.566;19.012;2023-06-19T02:22:52;99883.34;;;15.73;77.77
79362;BME280;68830;47.566;19.012;2023-06-19T02:25:55;99858.75;;;15.63;78.33
79362;BME280;68830;47.566;19.012;2023-06-19T02:28:57;99876.34;;;15.72;78.08
79362;BME280;68830;47.566;19.012;2023-06-19T02:31:59;99873.84;;;15.70;77.74
79362;BME280;68830;47.566;19.012;2023-06-19T02:35:02;99871.19;;;15.70;77.98
79362;BME280;68830;47.566;19.012;2023-06-19T02:38:05;99879.84;;;15.72;78.27
79362;BME280;68830;47.566;19.012;2023-06-19T02:41:08;99880.47;;;15.60;76.79
79362;BME280;68830;47.566;19.012;2023-06-19T02:44:10;99890.25;;;15.44;77.58
79362;BME280;68830;47.566;19.012;2023-06-19T02:47:13;99887.56;;;15.30;78.05
79362;BME280;68830;47.566;19.012;2023-06-19T02:50:14;99896.13;;;15.25;78.51
79362;BME280;68830;47.566;19.012;2023-06-19T02:53:16;99891.00;;;15.15;78.64
79362;BME280;68830;47.566;19.012;2023-06-19T02:56:20;99890.56;;;15.12;79.06
79362;BME280;68830;47.566;19.012;2023-06-19T02:59:22;99904.91;;;15.11;78.99
79362;BME280;68830;47.566;19.012;2023-06-19T03:02:23;99891.75;;;15.09;79.45
79362;BME280;68830;47.566;19.012;2023-06-19T03:05:25;99887.25;;;15.10;79.43
79362;BME280;68830;47.566;19.012;2023-06-19T03:08:28;99894.22;;;15.11;79.89
79362;BME280;68830;47.566;19.012;2023-06-19T03:11:32;99875.97;;;15.00;79.55
79362;BME280;68830;47.566;19.012;2023-06-19T03:14:34;99883.75;;;15.09;79.56
79362;BME280;68830;47.566;19.012;2023-06-19T03:17:36;99892.03;;;15.14;80.22
79362;BME280;68830;47.566;19.012;2023-06-19T03:20:38;99893.06;;;15.28;80.25
79362;BME280;68830;47.566;19.012;2023-06-19T03:23:40;99887.56;;;15.30;81.11
79362;BME280;68830;47.566;19.012;2023-06-19T03:26:45;99906.56;;;15.49;80.95
79362;BME280;68830;47.566;19.012;2023-06-19T03:29:47;99902.31;;;15.63;80.76
79362;BME280;68830;47.566;19.012;2023-06-19T03:32:49;99914.66;;;15.79;79.75
79362;BME280;68830;47.566;19.012;2023-06-19T03:35:50;99905.34;;;15.90;78.99
79362;BME280;68830;47.566;19.012;2023-06-19T03:38:53;99913.09;;;15.84;78.46
79362;BME280;68830;47.566;19.012;2023-06-19T03:41:59;99902.75;;;15.67;80.13
79362;BME280;68830;47.566;19.012;2023-06-19T03:45:01;99901.09;;;15.66;81.51
79362;BME280;68830;47.566;19.012;2023-06-19T03:48:04;99907.66;;;15.78;81.63
79362;BME280;68830;47.566;19.012;2023-06-19T03:51:06;99916.41;;;16.01;81.75
79362;BME280;68830;47.566;19.012;2023-06-19T03:54:08;99914.34;;;16.18;80.45
79362;BME280;68830;47.566;19.012;2023-06-19T03:57:12;99919.06;;;16.31;79.91
79362;BME280;68830;47.566;19.012;2023-06-19T04:00:14;99920.25;;;16.28;78.34
79362;BME280;68830;47.566;19.012;2023-06-19T04:03:17;99909.28;;;16.23;78.24
79362;BME280;68830;47.566;19.012;2023-06-19T04:06:19;99913.97;;;16.36;78.50
79362;BME280;68830;47.566;19.012;2023-06-19T04:09:21;99912.66;;;16.47;78.49
79362;BME280;68830;47.566;19.012;2023-06-19T04:12:25;99888.53;;;16.40;78.18
79362;BME280;68830;47.566;19.012;2023-06-19T04:15:27;99918.81;;;16.62;78.43
79362;BME280;68830;47.566;19.012;2023-06-19T04:18:29;99916.31;;;16.75;78.39
79362;BME280;68830;47.566;19.012;2023-06-19T04:21:31;99900.03;;;16.55;78.45
79362;BME280;68830;47.566;19.012;2023-06-19T04:24:33;99924.44;;;16.67;75.65
79362;BME280;68830;47.566;19.012;2023-06-19T04:27:38;99931.91;;;16.71;76.42
79362;BME280;68830;47.566;19.012;2023-06-19T04:30:40;99916.75;;;16.79;75.78
79362;BME280;68830;47.566;19.012;2023-06-19T04:33:42;99915.69;;;16.94;75.66
79362;BME280;68830;47.566;19.012;2023-06-19T04:36:44;99910.72;;;17.13;76.15
79362;BME280;68830;47.566;19.012;2023-06-19T04:39:47;99909.81;;;17.27;75.51
79362;BME280;68830;47.566;19.012;2023-06-19T04:42:53;99925.50;;;17.58;75.20
79362;BME280;68830;47.566;19.012;2023-06-19T04:45:55;99925.38;;;17.66;73.51
79362;BME280;68830;47.566;19.012;2023-06-19T04:48:58;99933.41;;;17.66;73.78
79362;BME280;68830;47.566;19.012;2023-06-19T04:52:06;99930.38;;;17.69;74.33
79362;BME280;68830;47.566;19.012;2023-06-19T04:55:08;99931.88;;;17.78;75.15
79362;BME280;68830;47.566;19.012;2023-06-19T04:58:12;99929.47;;;17.90;76.14
79362;BME280;68830;47.566;19.012;2023-06-19T05:01:17;99900.16;;;17.82;76.04
79362;BME280;68830;47.566;19.012;2023-06-19T05:04:20;99935.78;;;18.10;77.16
79362;BME280;68830;47.566;19.012;2023-06-19T05:07:22;99929.63;;;18.16;74.71
79362;BME280;68830;47.566;19.012;2023-06-19T05:10:24;99934.00;;;18.24;74.19
79362;BME280;68830;47.566;19.012;2023-06-19T05:13:28;99934.66;;;18.33;74.02
79362;BME280;68830;47.566;19.012;2023-06-19T05:16:30;99938.78;;;18.35;74.74
79362;BME280;68830;47.566;19.012;2023-06-19T05:19:35;99943.19;;;18.49;74.29
79362;BME280;68830;47.566;19.012;2023-06-19T05:22:37;99952.31;;;18.55;75.97
79362;BME280;68830;47.566;19.012;2023-06-19T05:25:40;99952.72;;;18.59;74.84
79362;BME280;68830;47.566;19.012;2023-06-19T05:28:44;99961.97;;;18.49;74.77
79362;BME280;68830;47.566;19.012;2023-06-19T05:31:47;99933.81;;;18.32;74.70
79362;BME280;68830;47.566;19.012;2023-06-19T05:34:49;99956.16;;;18.39;74.83
79362;BME280;68830;47.566;19.012;2023-06-19T05:37:51;99941.09;;;18.38;74.18
79362;BME280;68830;47.566;19.012;2023-06-19T05:40:53;99943.03;;;18.58;73.71
79362;BME280;68830;47.566;19.012;2023-06-19T05:43:56;99947.69;;;18.90;71.35
79362;BME280;68830;47.566;19.012;2023-06-19T05:46:59;99943.59;;;19.14;71.02
79362;BME280;68830;47.566;19.012;2023-06-19T05:50:01;99947.56;;;19.31;67.96
79362;BME280;68830;47.566;19.012;2023-06-19T05:53:04;99948.59;;;19.50;69.11
79362;BME280;68830;47.566;19.012;2023-06-19T05:56:06;99950.50;;;19.63;69.05
79362;BME280;68830;47.566;19.012;2023-06-19T05:59:09;99966.19;;;19.86;66.51
79362;BME280;68830;47.566;19.012;2023-06-19T06:02:12;99909.13;;;19.51;68.13
79362;BME280;68830;47.566;19.012;2023-06-19T06:05:14;99924.81;;;19.01;70.23
79362;BME280;68830;47.566;19.012;2023-06-19T06:08:19;99913.88;;;19.42;70.08
79362;BME280;68830;47.566;19.012;2023-06-19T06:11:22;99877.09;;;19.42;66.65
79362;BME280;68830;47.566;19.012;2023-06-19T06:14:26;99916.97;;;19.39;66.96
79362;BME280;68830;47.566;19.012;2023-06-19T06:17:28;99906.44;;;19.51;68.24
79362;BME280;68830;47.566;19.012;2023-06-19T06:20:31;99883.94;;;19.65;66.66
79362;BME280;68830;47.566;19.012;2023-06-19T06:23:33;99885.78;;;19.58;66.29
79362;BME280;68830;47.566;19.012;2023-06-19T06:26:35;99893.69;;;20.30;63.88
79362;BME280;68830;47.566;19.012;2023-06-19T06:29:40;99904.13;;;20.00;64.45
79362;BME280;68830;47.566;19.012;2023-06-19T06:32:41;99965.25;;;20.32;64.64
79362;BME280;68830;47.566;19.012;2023-06-19T06:35:44;99968.44;;;20.73;62.02
79362;BME280;68830;47.566;19.012;2023-06-19T06:38:46;99953.88;;;21.26;60.50
79362;BME280;68830;47.566;19.012;2023-06-19T06:41:48;99979.69;;;21.65;57.62
79362;BME280;68830;47.566;19.012;2023-06-19T06:44:51;99967.66;;;21.67;58.52
79362;BME280;68830;47.566;19.012;2023-06-19T06:47:53;99977.50;;;21.80;57.71
79362;BME280;68830;47.566;19.012;2023-06-19T06:50:58;99967.81;;;21.72;58.33
79362;BME280;68830;47.566;19.012;2023-06-19T06:54:03;99987.94;;;21.95;59.08
79362;BME280;68830;47.566;19.012;2023-06-19T06:57:05;99979.97;;;22.06;56.43
79362;BME280;68830;47.566;19.012;2023-06-19T07:00:10;99973.47;;;22.14;57.39
79362;BME280;68830;47.566;19.012;2023-06-19T07:03:13;99961.94;;;22.00;59.38
79362;BME280;68830;47.566;19.012;2023-06-19T07:06:15;99957.75;;;22.04;58.88
79362;BME280;68830;47.566;19.012;2023-06-19T07:09:17;99966.25;;;21.83;57.13
79362;BME280;68830;47.566;19.012;2023-06-19T07:12:19;99949.09;;;22.21;58.59
79362;BME280;68830;47.566;19.012;2023-06-19T07:15:23;99950.78;;;22.22;57.77
79362;BME280;68830;47.566;19.012;2023-06-19T07:18:24;99967.91;;;22.46;58.11
79362;BME280;68830;47.566;19.012;2023-06-19T07:21:27;99928.09;;;22.59;57.12
79362;BME280;68830;47.566;19.012;2023-06-19T07:24:29;99920.75;;;22.96;58.16
79362;BME280;68830;47.566;19.012;2023-06-19T07:27:31;99951.03;;;23.40;54.10
79362;BME280;68830;47.566;19.012;2023-06-19T07:30:35;99954.09;;;22.90;57.52
79362;BME280;68830;47.566;19.012;2023-06-19T07:33:37;99958.69;;;22.72;55.40
79362;BME280;68830;47.566;19.012;2023-06-19T07:36:39;99944.97;;;23.56;53.10
79362;BME280;68830;47.566;19.012;2023-06-19T07:39:41;99951.25;;;23.15;54.67
79362;BME280;68830;47.566;19.012;2023-06-19T07:42:45;99941.84;;;23.83;52.75
79362;BME280;68830;47.566;19.012;2023-06-19T07:45:48;99951.13;;;24.22;53.70
79362;BME280;68830;47.566;19.012;2023-06-19T07:48:51;99963.59;;;24.23;50.57
79362;BME280;68830;47.566;19.012;2023-06-19T07:51:53;99952.25;;;23.44;51.97
79362;BME280;68830;47.566;19.012;2023-06-19T07:54:56;99951.13;;;24.22;51.15
79362;BME280;68830;47.566;19.012;2023-06-19T07:57:59;99944.41;;;24.13;51.31
79362;BME280;68830;47.566;19.012;2023-06-19T08:01:02;99944.28;;;24.71;49.88
79362;BME280;68830;47.566;19.012;2023-06-19T08:04:05;99943.56;;;24.76;50.26
79362;BME280;68830;47.566;19.012;2023-06-19T08:07:07;99941.44;;;24.26;48.39
79362;BME280;68830;47.566;19.012;2023-06-19T08:10:09;99938.78;;;25.40;47.92
79362;BME280;68830;47.566;19.012;2023-06-19T08:13:16;99938.31;;;25.77;45.99
79362;BME280;68830;47.566;19.012;2023-06-19T08:16:19;99935.06;;;25.13;47.61
79362;BME280;68830;47.566;19.012;2023-06-19T08:19:22;99939.06;;;25.10;49.21
79362;BME280;68830;47.566;19.012;2023-06-19T08:22:24;99942.97;;;25.31;47.29
79362;BME280;68830;47.566;19.012;2023-06-19T08:25:27;99942.78;;;24.64;49.74
79362;BME280;68830;47.566;19.012;2023-06-19T08:28:30;99940.97;;;25.26;48.06
79362;BME280;68830;47.566;19.012;2023-06-19T08:31:34;99944.75;;;25.25;47.96
79362;BME280;68830;47.566;19.012;2023-06-19T08:34:36;99939.50;;;25.19;48.90
79362;BME280;68830;47.566;19.012;2023-06-19T08:37:40;99939.25;;;24.92;48.52
79362;BME280;68830;47.566;19.012;2023-06-19T08:40:42;99946.03;;;25.68;48.54
79362;BME280;68830;47.566;19.012;2023-06-19T08:43:45;99944.41;;;25.05;47.87
79362;BME280;68830;47.566;19.012;2023-06-19T08:46:48;99920.50;;;25.02;47.76
79362;BME280;68830;47.566;19.012;2023-06-19T08:49:50;99935.84;;;25.75;49.79
79362;BME280;68830;47.566;19.012;2023-06-19T08:52:54;99935.56;;;25.94;48.02
79362;BME280;68830;47.566;19.012;2023-06-19T08:55:56;99934.44;;;25.89;47.52
79362;BME280;68830;47.566;19.012;2023-06-19T08:59:17;99931.41;;;25.69;46.73
79362;BME280;68830;47.566;19.012;2023-06-19T09:02:20;99938.81;;;26.34;45.29
79362;BME280;68830;47.566;19.012;2023-06-19T09:05:23;99938.06;;;26.17;47.22
79362;BME280;68830;47.566;19.012;2023-06-19T09:08:25;99936.03;;;26.29;45.09
79362;BME280;68830;47.566;19.012;2023-06-19T09:11:26;99935.03;;;26.13;44.94
79362;BME280;68830;47.566;19.012;2023-06-19T09:14:32;99915.75;;;25.93;45.81
79362;BME280;68830;47.566;19.012;2023-06-19T09:17:36;99905.78;;;26.64;43.76
79362;BME280;68830;47.566;19.012;2023-06-19T09:20:39;99937.16;;;26.99;42.43
79362;BME280;68830;47.566;19.012;2023-06-19T09:23:46;99932.13;;;26.37;42.77
79362;BME280;68830;47.566;19.012;2023-06-19T09:26:50;99926.41;;;27.09;44.97
79362;BME280;68830;47.566;19.012;2023-06-19T09:29:52;99928.44;;;26.97;46.00
79362;BME280;68830;47.566;19.012;2023-06-19T09:33:06;99933.16;;;27.06;42.04
79362;BME280;68830;47.566;19.012;2023-06-19T09:36:09;99922.28;;;27.71;38.09
79362;BME280;68830;47.566;19.012;2023-06-19T09:39:11;99911.03;;;26.71;41.38
79362;BME280;68830;47.566;19.012;2023-06-19T09:42:15;99913.75;;;27.25;43.98
79362;BME280;68830;47.566;19.012;2023-06-19T09:45:20;99919.00;;;27.63;43.37
79362;BME280;68830;47.566;19.012;2023-06-19T09:48:28;99898.09;;;28.21;41.33
79362;BME280;68830;47.566;19.012;2023-06-19T09:51:35;99908.78;;;28.33;37.88
79362;BME280;68830;47.566;19.012;2023-06-19T09:54:39;99907.84;;;28.12;38.72
79362;BME280;68830;47.566;19.012;2023-06-19T09:57:43;99878.41;;;27.62;39.11
79362;BME280;68830;47.566;19.012;2023-06-19T10:00:47;99878.22;;;27.36;38.69
79362;BME280;68830;47.566;19.012;2023-06-19T10:04:02;99892.97;;;27.78;40.21
79362;BME280;68830;47.566;19.012;2023-06-19T10:07:15;99892.56;;;27.59;39.70
79362;BME280;68830;47.566;19.012;2023-06-19T10:10:24;99879.09;;;27.10;42.09
79362;BME280;68830;47.566;19.012;2023-06-19T10:13:34;99882.91;;;27.78;39.50
79362;BME280;68830;47.566;19.012;2023-06-19T10:16:37;99887.06;;;27.91;38.89
79362;BME280;68830;47.566;19.012;2023-06-19T10:19:49;99884.88;;;27.93;39.40
79362;BME280;68830;47.566;19.012;2023-06-19T10:22:56;99876.69;;;28.45;39.11
79362;BME280;68830;47.566;19.012;2023-06-19T10:26:00;99862.78;;;28.47;39.56
79362;BME280;68830;47.566;19.012;2023-06-19T10:29:14;99869.88;;;28.43;37.81
79362;BME280;68830;47.566;19.012;2023-06-19T10:32:15;99881.91;;;28.57;38.16
79362;BME280;68830;47.566;19.012;2023-06-19T10:35:19;99856.06;;;28.02;37.36
79362;BME280;68830;47.566;19.012;2023-06-19T10:38:26;99866.72;;;29.07;38.70
79362;BME280;68830;47.566;19.012;2023-06-19T10:41:28;99869.28;;;28.31;38.30
79362;BME280;68830;47.566;19.012;2023-06-19T10:44:31;99875.69;;;28.82;39.45
79362;BME280;68830;47.566;19.012;2023-06-19T10:47:34;99879.47;;;28.71;36.60
79362;BME280;68830;47.566;19.012;2023-06-19T10:50:41;99868.63;;;29.01;35.49
79362;BME280;68830;47.566;19.012;2023-06-19T10:53:44;99876.28;;;29.14;36.32
79362;BME280;68830;47.566;19.012;2023-06-19T10:56:46;99872.03;;;28.46;37.30
79362;BME280;68830;47.566;19.012;2023-06-19T10:59:51;99863.72;;;29.19;36.89
79362;BME280;68830;47.566;19.012;2023-06-19T11:02:55;99857.47;;;29.03;36.68
79362;BME280;68830;47.566;19.012;2023-06-19T11:05:58;99864.16;;;28.44;36.80
79362;BME280;68830;47.566;19.012;2023-06-19T11:09:00;99860.44;;;29.37;36.08
79362;BME280;68830;47.566;19.012;2023-06-19T11:12:05;99861.56;;;28.95;34.75
79362;BME280;68830;47.566;19.012;2023-06-19T11:15:11;99856.34;;;29.09;36.94
79362;BME280;68830;47.566;19.012;2023-06-19T11:18:15;99860.38;;;29.83;34.27
79362;BME280;68830;47.566;19.012;2023-06-19T11:21:18;99849.25;;;29.43;35.60
79362;BME280;68830;47.566;19.012;2023-06-19T11:24:22;99854.03;;;30.08;35.23
79362;BME280;68830;47.566;19.012;2023-06-19T11:27:25;99835.09;;;29.26;34.59
79362;BME280;68830;47.566;19.012;2023-06-19T11:30:32;99861.22;;;28.71;35.39
79362;BME280;68830;47.566;19.012;2023-06-19T11:33:34;99851.00;;;30.14;34.09
79362;BME280;68830;47.566;19.012;2023-06-19T11:36:38;99828.28;;;28.98;34.21
79362;BME280;68830;47.566;19.012;2023-06-19T11:39:41;99844.34;;;29.51;35.49
79362;BME280;68830;47.566;19.012;2023-06-19T11:42:47;99834.81;;;29.48;36.25
79362;BME280;68830;47.566;19.012;2023-06-19T11:45:49;99839.16;;;28.83;36.05
79362;BME280;68830;47.566;19.012;2023-06-19T11:48:53;99829.28;;;28.36;41.83
79362;BME280;68830;47.566;19.012;2023-06-19T11:52:09;99835.63;;;29.18;36.93
79362;BME280;68830;47.566;19.012;2023-06-19T11:55:11;99834.00;;;29.48;35.98
79362;BME280;68830;47.566;19.012;2023-06-19T11:58:14;99825.25;;;29.10;34.71
79362;BME280;68830;47.566;19.012;2023-06-19T12:01:21;99827.44;;;29.18;36.42
79362;BME280;68830;47.566;19.012;2023-06-19T12:04:23;99815.19;;;29.05;36.88
79362;BME280;68830;47.566;19.012;2023-06-19T12:07:26;99828.22;;;29.64;36.28
79362;BME280;68830;47.566;19.012;2023-06-19T12:10:29;99837.47;;;29.68;33.44
79362;BME280;68830;47.566;19.012;2023-06-19T12:13:31;99825.25;;;29.51;37.26
79362;BME280;68830;47.566;19.012;2023-06-19T12:16:33;99814.31;;;29.56;34.00
79362;BME280;68830;47.566;19.012;2023-06-19T12:19:35;99830.97;;;29.59;36.22
79362;BME280;68830;47.566;19.012;2023-06-19T12:22:39;99816.78;;;29.37;35.80
79362;BME280;68830;47.566;19.012;2023-06-19T12:25:41;99817.50;;;29.88;34.00
79362;BME280;68830;47.566;19.012;2023-06-19T12:28:43;99811.53;;;30.41;33.89
79362;BME280;68830;47.566;19.012;2023-06-19T12:31:45;99807.63;;;30.52;36.34
79362;BME280;68830;47.566;19.012;2023-06-19T12:34:47;99811.16;;;30.08;39.45
79362;BME280;68830;47.566;19.012;2023-06-19T12:37:50;99812.63;;;29.75;33.00
79362;BME280;68830;47.566;19.012;2023-06-19T12:40:53;99807.09;;;29.95;33.85
79362;BME280;68830;47.566;19.012;2023-06-19T12:43:55;99805.59;;;29.54;33.73
79362;BME280;68830;47.566;19.012;2023-06-19T12:46:57;99799.38;;;28.92;33.95
79362;BME280;68830;47.566;19.012;2023-06-19T12:50:01;99797.44;;;28.67;34.80
79362;BME280;68830;47.566;19.012;2023-06-19T12:53:05;99800.97;;;28.73;34.69
79362;BME280;68830;47.566;19.012;2023-06-19T12:56:07;99786.56;;;29.13;37.37
79362;BME280;68830;47.566;19.012;2023-06-19T12:59:14;99793.22;;;29.82;36.19
79362;BME280;68830;47.566;19.012;2023-06-19T13:02:17;99797.69;;;29.47;36.74
79362;BME280;68830;47.566;19.012;2023-06-19T13:05:19;99778.56;;;30.61;34.48
79362;BME280;68830;47.566;19.012;2023-06-19T13:08:22;99785.75;;;30.02;32.77
79362;BME280;68830;47.566;19.012;2023-06-19T13:11:25;99779.41;;;30.22;33.08
79362;BME280;68830;47.566;19.012;2023-06-19T13:14:27;99766.13;;;30.84;32.95
79362;BME280;68830;47.566;19.012;2023-06-19T13:17:30;99754.06;;;30.51;33.39
79362;BME280;68830;47.566;19.012;2023-06-19T13:20:33;99764.28;;;30.74;34.68
79362;BME280;68830;47.566;19.012;2023-06-19T13:23:36;99756.50;;;31.20;33.31
79362;BME280;68830;47.566;19.012;2023-06-19T13:26:38;99763.66;;;30.43;33.06
79362;BME280;68830;47.566;19.012;2023-06-19T13:29:40;99769.25;;;29.63;32.88
79362;BME280;68830;47.566;19.012;2023-06-19T13:32:42;99758.31;;;29.73;36.34
79362;BME280;68830;47.566;19.012;2023-06-19T13:35:44;99758.28;;;29.79;35.97
79362;BME280;68830;47.566;19.012;2023-06-19T13:38:47;99770.88;;;29.69;35.68
79362;BME280;68830;47.566;19.012;2023-06-19T13:41:50;99770.84;;;29.80;36.05
79362;BME280;68830;47.566;19.012;2023-06-19T13:44:52;99771.47;;;29.51;38.96
79362;BME280;68830;47.566;19.012;2023-06-19T13:47:54;99766.16;;;29.85;39.12
79362;BME280;68830;47.566;19.012;2023-06-19T13:50:57;99756.94;;;29.76;39.57
79362;BME280;68830;47.566;19.012;2023-06-19T13:54:02;99766.09;;;29.05;39.69
79362;BME280;68830;47.566;19.012;2023-06-19T13:57:06;99765.00;;;28.66;40.14
79362;BME280;68830;47.566;19.012;2023-06-19T14:00:10;99768.25;;;29.19;40.73
79362;BME280;68830;47.566;19.012;2023-06-19T14:03:21;99763.91;;;28.51;44.00
79362;BME280;68830;47.566;19.012;2023-06-19T14:06:24;99760.81;;;28.07;38.11
79362;BME280;68830;47.566;19.012;2023-06-19T14:09:28;99767.50;;;27.84;42.24
79362;BME280;68830;47.566;19.012;2023-06-19T14:12:31;99758.53;;;27.31;46.28
79362;BME280;68830;47.566;19.012;2023-06-19T14:15:33;99757.66;;;27.26;47.89
79362;BME280;68830;47.566;19.012;2023-06-19T14:18:35;99747.41;;;26.64;48.85
79362;BME280;68830;47.566;19.012;2023-06-19T14:21:39;99750.84;;;27.18;46.98
79362;BME280;68830;47.566;19.012;2023-06-19T14:24:42;99747.56;;;27.16;49.02
79362;BME280;68830;47.566;19.012;2023-06-19T14:27:44;99754.94;;;27.21;45.68
79362;BME280;68830;47.566;19.012;2023-06-19T14:30:47;99743.41;;;27.56;43.46
79362;BME280;68830;47.566;19.012;2023-06-19T14:33:49;99751.41;;;27.25;46.41
79362;BME280;68830;47.566;19.012;2023-06-19T14:36:51;99749.75;;;27.66;46.20
79362;BME280;68830;47.566;19.012;2023-06-19T14:39:55;99755.22;;;27.72;45.54
79362;BME280;68830;47.566;19.012;2023-06-19T14:42:57;99734.66;;;28.06;38.76
79362;BME280;68830;47.566;19.012;2023-06-19T14:45:59;99754.34;;;28.79;38.32
79362;BME280;68830;47.566;19.012;2023-06-19T14:49:01;99743.22;;;28.66;36.46
79362;BME280;68830;47.566;19.012;2023-06-19T14:52:03;99754.50;;;27.96;44.84
79362;BME280;68830;47.566;19.012;2023-06-19T14:55:07;99751.38;;;28.50;37.20
79362;BME280;68830;47.566;19.012;2023-06-19T14:58:09;99748.06;;;28.33;44.23
79362;BME280;68830;47.566;19.012;2023-06-19T15:01:12;99751.09;;;28.77;37.98
79362;BME280;68830;47.566;19.012;2023-06-19T15:04:14;99748.94;;;29.00;38.23
79362;BME280;68830;47.566;19.012;2023-06-19T15:07:17;99741.84;;;28.94;38.84
79362;BME280;68830;47.566;19.012;2023-06-19T15:10:20;99744.03;;;28.97;37.26
79362;BME280;68830;47.566;19.012;2023-06-19T15:13:23;99726.03;;;29.01;36.17
79362;BME280;68830;47.566;19.012;2023-06-19T15:16:25;99747.56;;;29.02;36.28
79362;BME280;68830;47.566;19.012;2023-06-19T15:19:27;99735.59;;;28.88;36.48
79362;BME280;68830;47.566;19.012;2023-06-19T15:22:29;99741.84;;;28.68;39.12
79362;BME280;68830;47.566;19.012;2023-06-19T15:25:32;99745.38;;;28.43;41.24
79362;BME280;68830;47.566;19.012;2023-06-19T15:28:34;99749.72;;;28.44;39.43
79362;BME280;68830;47.566;19.012;2023-06-19T15:31:37;99753.00;;;28.51;35.70
79362;BME280;68830;47.566;19.012;2023-06-19T15:34:39;99730.88;;;28.22;37.94
79362;BME280;68830;47.566;19.012;2023-06-19T15:37:43;99743.47;;;28.49;36.42
79362;BME280;68830;47.566;19.012;2023-06-19T15:40:46;99753.91;;;27.79;42.44
79362;BME280;68830;47.566;19.012;2023-06-19T15:43:48;99739.63;;;28.45;38.33
79362;BME280;68830;47.566;19.012;2023-06-19T15:46:50;99743.16;;;28.30;37.81
79362;BME280;68830;47.566;19.012;2023-06-19T15:49:52;99737.16;;;28.28;38.11
79362;BME280;68830;47.566;19.012;2023-06-19T15:52:55;99744.34;;;27.72;42.57
79362;BME280;68830;47.566;19.012;2023-06-19T15:55:58;99746.06;;;27.93;40.86
79362;BME280;68830;47.566;19.012;2023-06-19T15:59:00;99738.97;;;27.97;40.13